Time;durP1;ratioP1;P1;durP2;ratioP2;P2;SDS_P1;SDS_P2;PMS_P1;PMS_P2;Temp;Humidity;BMP_temperature;BMP_pressure;BME280_temperature;BME280_humidity;BME280_pressure;Samples;Min_cycle;Max_cycle;Signal;HPM_P1;HPM_P2
2022/08/05 00:02:21;;;;;;;2.10;1.33;;;28.30;49.70;;;;;;4878757;29;20424;-85
2022/08/05 00:04:48;;;;;;;1.45;1.35;;;28.30;49.90;;;;;;4865929;29;20996;-80
2022/08/05 00:07:22;;;;;;;2.97;1.45;;;28.30;49.80;;;;;;4859000;29;20427;-84
2022/08/05 00:10:09;;;;;;;2.00;1.35;;;28.30;50.00;;;;;;4871261;29;20417;-84
2022/08/05 00:12:36;;;;;;;2.30;1.35;;;28.30;49.90;;;;;;4861194;29;20979;-80
2022/08/05 00:15:23;;;;;;;2.00;1.42;;;28.40;49.80;;;;;;4870562;29;20419;-82
2022/08/05 00:18:09;;;;;;;2.15;1.42;;;28.30;50.00;;;;;;4869461;29;20504;-80
2022/08/05 00:20:48;;;;;;;1.70;1.50;;;28.30;50.20;;;;;;4866762;29;20433;-84
2022/08/05 00:23:15;;;;;;;3.13;1.40;;;28.30;50.20;;;;;;4861692;29;20427;-81
2022/08/05 00:25:42;;;;;;;2.22;1.40;;;28.20;49.80;;;;;;4870450;29;20428;-84
2022/08/05 00:28:12;;;;;;;3.33;1.58;;;28.20;49.80;;;;;;4867343;29;20424;-83
2022/08/05 00:30:39;;;;;;;3.38;1.30;;;28.30;49.90;;;;;;4870508;29;20488;-82
2022/08/05 00:33:09;;;;;;;2.90;1.50;;;28.30;50.00;;;;;;4870052;29;20426;-83
2022/08/05 00:35:57;;;;;;;2.72;1.50;;;28.30;49.80;;;;;;4869176;29;20986;-83
2022/08/05 00:38:44;;;;;;;3.53;1.73;;;28.20;49.80;;;;;;4869318;29;20899;-81
2022/08/05 00:41:11;;;;;;;2.63;1.60;;;28.30;50.00;;;;;;4874790;29;20416;-80
2022/08/05 00:43:40;;;;;;;2.55;1.30;;;28.30;50.20;;;;;;4869149;29;20425;-84
2022/08/05 00:46:15;;;;;;;2.33;1.50;;;28.30;50.10;;;;;;4867444;29;20460;-84
2022/08/05 00:49:03;;;;;;;2.75;1.40;;;28.20;49.90;;;;;;4868602;29;20946;-83
2022/08/05 00:51:33;;;;;;;4.43;1.40;;;28.30;50.00;;;;;;4865471;29;20428;-83
2022/08/05 00:54:17;;;;;;;1.52;1.42;;;28.20;50.10;;;;;;4869208;29;20425;-82
2022/08/05 00:56:44;;;;;;;2.80;1.30;;;28.20;50.50;;;;;;4864454;29;20449;-84
2022/08/05 00:59:17;;;;;;;2.55;1.40;;;28.20;50.60;;;;;;4869931;29;20833;-82
2022/08/05 01:01:44;;;;;;;2.72;1.48;;;28.10;50.50;;;;;;4866815;29;20478;-84
2022/08/05 01:04:14;;;;;;;1.42;1.25;;;28.10;50.50;;;;;;4868682;29;20421;-82
2022/08/05 01:06:47;;;;;;;2.37;1.40;;;28.10;50.50;;;;;;4876243;29;20491;-84
2022/08/05 01:09:18;;;;;;;1.67;1.30;;;28.00;50.70;;;;;;4877268;29;20436;-84
2022/08/05 01:11:49;;;;;;;1.92;1.25;;;28.00;50.80;;;;;;4877897;29;20455;-84
2022/08/05 01:14:22;;;;;;;1.50;1.35;;;28.00;50.80;;;;;;4869902;29;20829;-84
2022/08/05 01:17:32;;;;;;;1.98;1.40;;;28.00;50.80;;;;;;4870733;29;20516;-84
2022/08/05 01:20:24;;;;;;;2.42;1.40;;;27.90;50.80;;;;;;4844434;29;20436;-80
2022/08/05 01:22:56;;;;;;;2.70;1.20;;;27.90;50.80;;;;;;4861603;29;20436;-82
2022/08/05 01:25:59;;;;;;;2.30;1.20;;;27.90;50.80;;;;;;4876981;29;20457;-80
2022/08/05 01:28:29;;;;;;;1.23;1.10;;;27.90;50.80;;;;;;4857455;29;21025;-83
2022/08/05 01:31:12;;;;;;;2.13;1.20;;;27.90;50.80;;;;;;4866877;29;20486;-82
2022/08/05 01:34:00;;;;;;;1.80;1.30;;;27.80;50.90;;;;;;4862679;29;20911;-82
2022/08/05 01:36:35;;;;;;;1.77;1.42;;;27.80;50.80;;;;;;4861094;29;20437;-84
2022/08/05 01:39:10;;;;;;;1.50;1.10;;;27.80;50.70;;;;;;4857493;29;20796;-81
2022/08/05 01:41:39;;;;;;;1.90;1.40;;;27.80;50.70;;;;;;4862769;29;20413;-80
2022/08/05 01:44:11;;;;;;;1.50;1.02;;;27.80;50.60;;;;;;4877370;29;20433;-82
2022/08/05 01:46:43;;;;;;;1.70;1.35;;;27.80;50.70;;;;;;4866123;29;20423;-82
2022/08/05 01:49:17;;;;;;;1.97;1.13;;;27.80;50.70;;;;;;4861695;29;20450;-82
2022/08/05 01:51:50;;;;;;;1.30;1.08;;;27.80;50.70;;;;;;4872833;29;20422;-84
2022/08/05 01:54:20;;;;;;;1.40;1.30;;;27.80;50.50;;;;;;4863402;29;20431;-82
2022/08/05 01:56:52;;;;;;;2.22;1.30;;;27.90;51.50;;;;;;4870818;29;20433;-81
2022/08/05 01:59:40;;;;;;;2.17;1.33;;;27.90;50.40;;;;;;4874975;29;20435;-82
2022/08/05 02:02:14;;;;;;;2.22;1.23;;;27.80;50.80;;;;;;4870520;29;20906;-80
2022/08/05 02:04:44;;;;;;;2.35;1.30;;;27.70;51.20;;;;;;4861991;29;20467;-83
2022/08/05 02:07:16;;;;;;;1.50;1.23;;;27.70;51.40;;;;;;4859952;29;20915;-84
2022/08/05 02:09:49;;;;;;;2.13;1.20;;;27.60;51.60;;;;;;4878520;29;20508;-82
2022/08/05 02:12:36;;;;;;;1.50;1.37;;;27.60;51.70;;;;;;4866691;29;20425;-80
2022/08/05 02:15:10;;;;;;;1.40;1.30;;;27.60;51.50;;;;;;4893757;29;20430;-83
2022/08/05 02:17:48;;;;;;;1.40;1.20;;;27.60;51.40;;;;;;4879368;29;20483;-82
2022/08/05 02:21:18;;;;;;;1.30;1.20;;;27.50;51.70;;;;;;4870083;29;20845;-84
2022/08/05 02:23:52;;;;;;;1.38;1.20;;;27.40;52.00;;;;;;4876299;29;20427;-81
2022/08/05 02:26:38;;;;;;;1.55;1.17;;;27.40;51.80;;;;;;4857162;29;20806;-83
2022/08/05 02:29:23;;;;;;;1.83;1.27;;;27.40;51.60;;;;;;4880451;29;20968;-80
2022/08/05 02:32:11;;;;;;;1.10;1.00;;;27.40;51.50;;;;;;4858422;29;20512;-81
2022/08/05 02:34:57;;;;;;;2.60;1.30;;;27.50;51.40;;;;;;4858778;29;20927;-82
2022/08/05 02:37:32;;;;;;;3.38;1.27;;;27.50;51.20;;;;;;4869357;29;20485;-84
2022/08/05 02:40:02;;;;;;;1.60;1.25;;;27.50;51.50;;;;;;4864964;29;20427;-81
2022/08/05 02:42:30;;;;;;;1.40;1.30;;;27.40;51.60;;;;;;4864651;29;20919;-83
2022/08/05 02:45:02;;;;;;;1.20;1.10;;;27.40;51.80;;;;;;4870180;29;20431;-82
2022/08/05 02:47:32;;;;;;;1.63;1.08;;;27.40;52.00;;;;;;4877694;29;20855;-84
2022/08/05 02:50:20;;;;;;;2.67;1.40;;;27.50;52.00;;;;;;4861242;29;20514;-80
2022/08/05 02:52:49;;;;;;;3.95;1.50;;;27.40;52.30;;;;;;4864661;29;20973;-83
2022/08/05 02:55:16;;;;;;;3.03;1.52;;;27.40;52.30;;;;;;4862446;29;20932;-83
2022/08/05 02:58:04;;;;;;;1.73;1.48;;;27.40;52.50;;;;;;4876940;29;20511;-83
2022/08/05 03:00:38;;;;;;;1.80;1.58;;;27.40;52.50;;;;;;4866035;29;20421;-80
2022/08/05 03:03:06;;;;;;;1.70;1.58;;;27.40;52.60;;;;;;4865821;29;20483;-83
2022/08/05 03:05:38;;;;;;;2.03;1.48;;;27.30;52.80;;;;;;4858945;29;20433;-80
2022/08/05 03:08:25;;;;;;;2.28;1.40;;;27.20;52.90;;;;;;4868552;29;20868;-84
2022/08/05 03:10:56;;;;;;;2.13;1.30;;;27.20;53.40;;;;;;4872808;29;20497;-83
2022/08/05 03:13:43;;;;;;;2.30;1.33;;;27.10;53.70;;;;;;4871743;29;20501;-84
2022/08/05 03:16:28;;;;;;;2.80;1.88;;;27.10;53.70;;;;;;4858987;29;20461;-83
2022/08/05 03:18:57;;;;;;;1.40;1.30;;;27.00;54.00;;;;;;4862153;29;20514;-80
2022/08/05 03:21:25;;;;;;;1.23;1.13;;;26.90;53.90;;;;;;4861467;29;20428;-80
2022/08/05 03:23:59;;;;;;;1.65;1.33;;;26.90;54.10;;;;;;4855582;29;20794;-82
2022/08/05 03:26:28;;;;;;;2.00;1.57;;;26.90;54.20;;;;;;4854334;29;20846;-83
2022/08/05 03:28:58;;;;;;;2.22;1.35;;;26.80;54.40;;;;;;4863306;29;20447;-82
2022/08/05 03:31:25;;;;;;;2.38;1.42;;;26.80;54.50;;;;;;4863945;29;20425;-82
2022/08/05 03:34:12;;;;;;;2.00;1.60;;;26.70;54.70;;;;;;4872507;29;20513;-84
2022/08/05 03:36:39;;;;;;;2.90;1.50;;;26.80;54.40;;;;;;4863559;29;20421;-84
2022/08/05 03:39:07;;;;;;;1.42;1.33;;;26.80;54.30;;;;;;4871855;29;20419;-82
2022/08/05 03:41:46;;;;;;;1.88;1.55;;;26.80;54.30;;;;;;4869786;29;20420;-82
2022/08/05 03:44:13;;;;;;;1.90;1.40;;;26.80;54.20;;;;;;4874515;29;20503;-83
2022/08/05 03:46:45;;;;;;;1.52;1.40;;;26.70;54.30;;;;;;4862092;29;20454;-83
2022/08/05 03:49:14;;;;;;;1.53;1.40;;;26.80;54.20;;;;;;4867381;29;20509;-82
2022/08/05 03:52:01;;;;;;;3.05;1.48;;;26.70;54.10;;;;;;4870068;29;20425;-84
2022/08/05 03:54:56;;;;;;;1.73;1.40;;;26.70;54.40;;;;;;4869163;29;20533;-82
2022/08/05 03:57:45;;;;;;;1.60;1.50;;;26.70;54.50;;;;;;4867272;29;20573;-83
2022/08/05 04:00:15;;;;;;;2.00;1.60;;;26.70;54.60;;;;;;4863440;29;20426;-82
2022/08/05 04:02:47;;;;;;;2.10;1.38;;;26.60;54.70;;;;;;4864793;29;20427;-82
2022/08/05 04:05:29;;;;;;;2.38;1.55;;;26.60;55.00;;;;;;4856140;29;20919;-81
2022/08/05 04:08:06;;;;;;;1.60;1.50;;;26.60;54.90;;;;;;4874711;29;20851;-82
2022/08/05 04:10:54;;;;;;;1.33;1.23;;;26.60;55.10;;;;;;4857811;29;20928;-84
2022/08/05 04:13:25;;;;;;;1.35;1.20;;;26.60;55.10;;;;;;4882400;29;20432;-80
2022/08/05 04:16:12;;;;;;;1.55;1.38;;;26.60;54.80;;;;;;4863937;29;20453;-82
2022/08/05 04:18:40;;;;;;;1.60;1.30;;;26.70;54.60;;;;;;4860050;29;20426;-83
2022/08/05 04:21:07;;;;;;;1.80;1.33;;;26.70;54.40;;;;;;4872157;29;21436;-79
2022/08/05 04:23:38;;;;;;;1.77;1.23;;;26.70;54.40;;;;;;4865867;29;20799;-82
2022/08/05 04:26:24;;;;;;;1.83;1.10;;;26.70;54.70;;;;;;4860168;29;20487;-84
2022/08/05 04:28:59;;;;;;;4.97;1.80;;;26.60;54.80;;;;;;4861377;29;20791;-80
2022/08/05 04:31:33;;;;;;;3.28;1.48;;;26.60;55.00;;;;;;4855809;29;20951;-82
2022/08/05 04:34:05;;;;;;;1.40;1.20;;;26.50;55.00;;;;;;4860110;29;20433;-80
2022/08/05 04:36:52;;;;;;;1.42;1.23;;;26.50;55.20;;;;;;4867688;29;20420;-82
2022/08/05 04:39:19;;;;;;;2.30;1.30;;;26.40;55.30;;;;;;4855524;29;20425;-81
2022/08/05 04:41:47;;;;;;;2.20;1.38;;;26.40;55.50;;;;;;4856671;29;20826;-82
2022/08/05 04:44:17;;;;;;;2.70;1.45;;;26.40;55.30;;;;;;4870908;29;20459;-80
2022/08/05 04:46:56;;;;;;;2.45;1.48;;;26.40;55.40;;;;;;4846857;29;20429;-82
2022/08/05 04:49:24;;;;;;;1.65;1.30;;;26.50;55.30;;;;;;4873508;29;20459;-82
2022/08/05 04:52:11;;;;;;;1.40;1.30;;;26.50;55.20;;;;;;4865816;29;20416;-80
2022/08/05 04:54:38;;;;;;;1.83;1.30;;;26.50;55.40;;;;;;4863828;29;20854;-83
2022/08/05 04:57:05;;;;;;;1.45;1.35;;;26.40;55.50;;;;;;4865893;29;20433;-83
2022/08/05 04:59:32;;;;;;;2.90;1.58;;;26.40;55.50;;;;;;4863540;29;20428;-82
2022/08/05 05:02:07;;;;;;;2.42;1.50;;;26.40;55.50;;;;;;4883097;29;20416;-80
2022/08/05 05:04:54;;;;;;;1.55;1.35;;;26.40;55.40;;;;;;4863420;29;20476;-82
2022/08/05 05:07:29;;;;;;;1.48;1.38;;;26.40;55.20;;;;;;4865177;29;20472;-82
2022/08/05 05:10:02;;;;;;;1.48;1.38;;;26.50;55.50;;;;;;4868262;29;20439;-85
2022/08/05 05:12:30;;;;;;;1.77;1.50;;;26.50;55.30;;;;;;4876612;29;20927;-80
2022/08/05 05:14:57;;;;;;;2.75;1.58;;;26.50;55.20;;;;;;4877139;29;20420;-83
2022/08/05 05:17:24;;;;;;;1.60;1.40;;;26.50;55.50;;;;;;4865880;29;20439;-82
2022/08/05 05:20:12;;;;;;;1.80;1.60;;;26.50;55.30;;;;;;4860322;29;20478;-83
2022/08/05 05:22:40;;;;;;;1.40;1.30;;;26.60;55.00;;;;;;4858377;29;20428;-82
2022/08/05 05:25:12;;;;;;;1.70;1.42;;;26.60;54.60;;;;;;4856602;29;20440;-79
2022/08/05 05:27:43;;;;;;;2.22;1.40;;;26.60;55.00;;;;;;4869219;29;20446;-84
2022/08/05 05:30:22;;;;;;;1.48;1.25;;;26.70;54.40;;;;;;4848613;29;20447;-82
2022/08/05 05:32:58;;;;;;;1.80;1.10;;;26.70;54.70;;;;;;4858155;29;20434;-81
2022/08/05 05:35:30;;;;;;;1.80;1.43;;;26.80;54.10;;;;;;4859572;29;20807;-82
2022/08/05 05:38:05;;;;;;;1.73;1.25;;;26.90;54.00;;;;;;4874761;29;20849;-81
2022/08/05 05:40:40;;;;;;;1.33;1.20;;;27.00;54.10;;;;;;4855270;29;20908;-84
2022/08/05 05:43:21;;;;;;;1.70;1.33;;;27.00;54.20;;;;;;4880036;29;20436;-84
2022/08/05 05:46:08;;;;;;;2.47;1.20;;;27.00;54.20;;;;;;4858781;29;20426;-84
2022/08/05 05:48:44;;;;;;;2.08;1.35;;;27.10;54.00;;;;;;4859234;29;20904;-84
2022/08/05 05:51:18;;;;;;;1.83;1.20;;;27.20;53.30;;;;;;4862621;29;20500;-80
2022/08/05 05:53:45;;;;;;;2.53;1.20;;;27.30;53.20;;;;;;4862742;29;20489;-81
2022/08/05 05:56:28;;;;;;;1.42;1.33;;;27.30;52.70;;;;;;4858764;29;20448;-84
2022/08/05 05:59:00;;;;;;;2.40;1.20;;;27.30;52.60;;;;;;4867208;29;20420;-82
2022/08/05 06:01:30;;;;;;;1.43;1.03;;;27.30;52.70;;;;;;4862421;29;20447;-82
2022/08/05 06:04:12;;;;;;;1.63;1.10;;;27.30;53.70;;;;;;4864813;29;20442;-82
2022/08/05 06:06:41;;;;;;;2.53;1.33;;;27.30;52.60;;;;;;4857456;29;20493;-82
2022/08/05 06:09:15;;;;;;;1.52;1.42;;;27.40;52.80;;;;;;4852306;29;20485;-79
2022/08/05 06:11:53;;;;;;;1.45;1.17;;;27.40;52.60;;;;;;4858498;29;20433;-80
2022/08/05 06:14:32;;;;;;;1.60;1.35;;;27.40;52.60;;;;;;4869112;29;20435;-82
2022/08/05 06:17:01;;;;;;;1.77;1.15;;;27.40;52.50;;;;;;4858886;29;20430;-83
2022/08/05 06:19:48;;;;;;;2.25;1.02;;;27.50;52.50;;;;;;4867004;29;20455;-81
2022/08/05 06:22:29;;;;;;;1.30;1.20;;;27.50;52.60;;;;;;4863508;29;20574;-82
2022/08/05 06:25:01;;;;;;;1.58;1.20;;;27.50;52.00;;;;;;4869478;29;20466;-82
2022/08/05 06:27:47;;;;;;;1.73;1.23;;;27.60;51.80;;;;;;4865795;29;20416;-82
2022/08/05 06:30:34;;;;;;;1.98;1.10;;;27.60;51.80;;;;;;4866404;29;20437;-81
2022/08/05 06:33:01;;;;;;;4.38;1.25;;;27.50;53.10;;;;;;4857771;29;20434;-82
2022/08/05 06:35:28;;;;;;;1.20;1.10;;;27.50;52.40;;;;;;4869881;29;20447;-82
2022/08/05 06:38:15;;;;;;;1.65;1.40;;;27.50;52.10;;;;;;4869141;29;20849;-82
2022/08/05 06:40:42;;;;;;;1.52;1.20;;;27.60;52.20;;;;;;4863690;29;20440;-83
2022/08/05 06:43:11;;;;;;;3.42;1.30;;;27.60;51.70;;;;;;4853558;29;20511;-84
2022/08/05 06:45:57;;;;;;;1.20;1.10;;;27.70;51.70;;;;;;4859259;29;20539;-81
2022/08/05 06:48:33;;;;;;;1.75;1.10;;;27.80;51.50;;;;;;4863241;29;20486;-84
2022/08/05 06:51:21;;;;;;;4.15;1.35;;;27.90;51.50;;;;;;4848735;29;20530;-80
2022/08/05 06:54:00;;;;;;;1.20;1.10;;;28.00;51.00;;;;;;4851535;29;20551;-83
2022/08/05 06:56:28;;;;;;;1.75;1.10;;;28.10;50.80;;;;;;4863048;29;20431;-80
2022/08/05 06:58:59;;;;;;;1.30;1.20;;;28.20;50.80;;;;;;4870516;29;20788;-80
2022/08/05 07:01:26;;;;;;;1.27;1.10;;;28.30;50.20;;;;;;4849184;29;20516;-79
2022/08/05 07:04:00;;;;;;;1.70;1.30;;;28.40;49.70;;;;;;4851676;29;20455;-80
2022/08/05 07:06:28;;;;;;;1.42;1.10;;;28.50;49.90;;;;;;4865954;29;20433;-81
2022/08/05 07:08:55;;;;;;;1.60;1.10;;;28.60;49.70;;;;;;4858810;29;20436;-80
2022/08/05 07:11:27;;;;;;;1.27;1.10;;;28.70;49.10;;;;;;4872566;29;20489;-85
2022/08/05 07:16:59;;;;;;;2.28;1.33;;;28.90;49.10;;;;;;4871443;29;20454;-81
2022/08/05 07:19:46;;;;;;;1.40;1.07;;;28.90;48.80;;;;;;4853947;29;20513;-80
2022/08/05 07:22:33;;;;;;;1.37;1.10;;;29.00;48.50;;;;;;4860809;29;20445;-84
2022/08/05 07:25:01;;;;;;;2.60;1.10;;;29.10;48.40;;;;;;4861347;29;20840;-81
2022/08/05 07:27:51;;;;;;;2.13;0.93;;;29.20;47.50;;;;;;4862398;29;20467;-80
2022/08/05 07:30:29;;;;;;;1.85;0.95;;;29.30;47.90;;;;;;4872003;29;20430;-84
2022/08/05 07:33:03;;;;;;;2.00;1.20;;;29.50;47.20;;;;;;4846995;29;20422;-80
2022/08/05 07:35:38;;;;;;;1.47;1.00;;;29.60;46.60;;;;;;4865364;29;20525;-80
2022/08/05 07:38:26;;;;;;;1.33;1.00;;;29.70;46.80;;;;;;4859604;29;20526;-84
2022/08/05 07:41:08;;;;;;;2.38;1.00;;;29.90;45.90;;;;;;4866643;29;20412;-84
2022/08/05 07:43:56;;;;;;;0.87;0.87;;;30.00;45.50;;;;;;4861948;29;20457;-81
2022/08/05 07:46:27;;;;;;;1.30;0.90;;;30.20;44.50;;;;;;4867433;29;20432;-80
2022/08/05 07:48:56;;;;;;;1.02;0.93;;;30.30;44.90;;;;;;4861778;29;20425;-84
2022/08/05 07:51:34;;;;;;;1.10;0.80;;;30.30;45.50;;;;;;4872829;29;20519;-84
2022/08/05 07:54:20;;;;;;;1.65;0.90;;;30.50;44.10;;;;;;4861053;29;20534;-84
2022/08/05 07:56:52;;;;;;;2.73;1.10;;;30.60;43.60;;;;;;4858516;29;20434;-83
2022/08/05 07:59:39;;;;;;;1.17;0.80;;;30.80;44.00;;;;;;4854459;29;20457;-84
2022/08/05 08:02:12;;;;;;;0.93;0.88;;;30.80;43.90;;;;;;4861374;29;20993;-83
2022/08/05 08:04:44;;;;;;;1.95;1.20;;;31.00;44.10;;;;;;4871940;29;20434;-84
2022/08/05 08:07:12;;;;;;;1.40;1.02;;;31.20;42.10;;;;;;4866645;29;20442;-83
2022/08/05 08:09:39;;;;;;;1.10;0.93;;;31.30;42.10;;;;;;4865850;29;20413;-84
2022/08/05 08:12:06;;;;;;;2.10;1.08;;;31.40;42.40;;;;;;4857191;29;20451;-84
2022/08/05 08:14:53;;;;;;;0.85;0.82;;;31.50;42.00;;;;;;4871599;29;20900;-81
2022/08/05 08:17:20;;;;;;;1.50;0.90;;;31.60;43.20;;;;;;4857201;29;20968;-84
2022/08/05 08:19:47;;;;;;;1.60;0.98;;;31.80;40.80;;;;;;4873090;29;20440;-84
2022/08/05 08:22:34;;;;;;;1.10;1.00;;;31.90;40.50;;;;;;4868671;29;20439;-80
2022/08/05 08:25:01;;;;;;;0.90;0.90;;;32.00;41.10;;;;;;4862836;29;20433;-84
2022/08/05 08:27:43;;;;;;;1.38;1.00;;;32.10;40.60;;;;;;4860961;29;20425;-81
2022/08/05 08:30:14;;;;;;;1.45;0.90;;;32.30;40.30;;;;;;4868978;29;20421;-80
2022/08/05 08:33:07;;;;;;;0.82;0.82;;;32.50;39.90;;;;;;4868279;29;20555;-84
2022/08/05 08:35:40;;;;;;;1.10;0.98;;;32.70;39.40;;;;;;4869204;29;20421;-82
2022/08/05 08:38:27;;;;;;;1.15;0.95;;;32.80;39.00;;;;;;4856257;29;20427;-84
2022/08/05 08:41:08;;;;;;;0.98;0.88;;;32.90;40.00;;;;;;4845932;29;20486;-81
2022/08/05 08:43:36;;;;;;;1.13;0.93;;;33.00;40.50;;;;;;4848175;29;20441;-82
2022/08/05 08:46:29;;;;;;;2.35;0.82;;;33.00;39.10;;;;;;4855282;29;20436;-82
2022/08/05 08:48:58;;;;;;;1.13;1.00;;;33.10;38.80;;;;;;4872246;29;20449;-80
2022/08/05 08:52:02;;;;;;;1.42;1.00;;;33.10;38.30;;;;;;4842204;29;20876;-81
2022/08/05 08:54:41;;;;;;;2.03;1.20;;;33.10;38.80;;;;;;4835987;29;20427;-85
2022/08/05 08:57:11;;;;;;;1.70;1.08;;;33.20;39.80;;;;;;4848636;29;20923;-85
2022/08/05 08:59:40;;;;;;;2.90;1.40;;;33.30;39.60;;;;;;4886792;29;20470;-84
2022/08/05 09:02:13;;;;;;;2.08;1.33;;;33.30;39.00;;;;;;4878369;29;20973;-80
2022/08/05 09:04:44;;;;;;;1.40;1.30;;;33.30;39.50;;;;;;4863304;29;20421;-80
2022/08/05 09:07:31;;;;;;;2.28;1.30;;;33.30;39.10;;;;;;4868517;29;20504;-80
2022/08/05 09:10:18;;;;;;;2.13;1.10;;;33.40;39.50;;;;;;4864262;29;20513;-81
2022/08/05 09:12:46;;;;;;;2.57;1.23;;;33.50;39.10;;;;;;4860670;29;20425;-80
2022/08/05 09:15:19;;;;;;;1.88;1.20;;;33.60;40.20;;;;;;4854601;29;20524;-80
2022/08/05 09:17:46;;;;;;;1.97;1.00;;;33.60;38.80;;;;;;4857960;29;20425;-82
2022/08/05 09:20:18;;;;;;;1.93;1.50;;;33.70;38.70;;;;;;4866221;29;20444;-84
2022/08/05 09:23:16;;;;;;;1.98;1.15;;;33.80;38.30;;;;;;4849959;29;20476;-84
2022/08/05 09:26:04;;;;;;;2.30;1.10;;;33.80;38.30;;;;;;4845747;29;20429;-81
2022/08/05 09:28:36;;;;;;;3.05;1.42;;;34.00;38.20;;;;;;4872849;29;20432;-84
2022/08/05 09:31:08;;;;;;;1.15;1.00;;;34.10;39.00;;;;;;4861794;29;20491;-82
2022/08/05 09:33:59;;;;;;;4.70;1.50;;;34.20;38.20;;;;;;4868494;29;20422;-84
2022/08/05 09:36:51;;;;;;;1.88;1.30;;;34.20;37.40;;;;;;4876506;29;20918;-81
2022/08/05 09:39:23;;;;;;;1.75;1.10;;;34.30;37.30;;;;;;4863718;29;20479;-81
2022/08/05 09:42:10;;;;;;;1.30;1.10;;;34.30;36.20;;;;;;4858400;29;21001;-83
2022/08/05 09:44:51;;;;;;;1.65;1.05;;;34.40;36.70;;;;;;4847709;29;20481;-81
2022/08/05 09:47:26;;;;;;;1.80;1.08;;;34.40;36.50;;;;;;4855118;29;20422;-83
2022/08/05 09:50:17;;;;;;;1.48;1.05;;;34.50;35.70;;;;;;4857819;29;20510;-83
2022/08/05 09:53:04;;;;;;;1.23;1.13;;;34.60;36.00;;;;;;4863384;29;20807;-81
2022/08/05 09:55:35;;;;;;;2.08;1.30;;;34.70;36.10;;;;;;4861276;29;20422;-83
2022/08/05 09:58:23;;;;;;;1.98;1.17;;;34.90;35.40;;;;;;4855492;29;20489;-83
2022/08/05 10:01:00;;;;;;;1.70;1.10;;;35.00;35.80;;;;;;4846396;29;20487;-82
2022/08/05 10:03:52;;;;;;;3.22;1.13;;;35.10;35.40;;;;;;4838387;29;20907;-83
2022/08/05 10:06:29;;;;;;;2.97;1.00;;;35.20;35.10;;;;;;4851793;29;20466;-82
2022/08/05 10:09:15;;;;;;;2.13;0.90;;;35.30;35.20;;;;;;4840534;29;20422;-84
2022/08/05 10:12:05;;;;;;;2.38;1.00;;;35.40;35.00;;;;;;4876541;29;20427;-82
2022/08/05 10:14:52;;;;;;;3.40;1.08;;;35.50;34.80;;;;;;4859652;29;20413;-83
2022/08/05 10:17:20;;;;;;;1.92;1.00;;;35.70;33.90;;;;;;4855485;29;20788;-84
2022/08/05 10:20:06;;;;;;;1.58;1.00;;;35.70;34.50;;;;;;4871541;29;20841;-83
2022/08/05 10:22:38;;;;;;;3.10;1.07;;;35.60;33.60;;;;;;4859244;29;20441;-82
2022/08/05 10:25:14;;;;;;;2.65;1.00;;;35.60;34.50;;;;;;4860579;29;20407;-82
2022/08/05 10:27:41;;;;;;;2.27;1.40;;;35.60;33.60;;;;;;4865401;29;20467;-84
2022/08/05 10:30:29;;;;;;;1.90;1.38;;;35.70;33.70;;;;;;4858989;29;20433;-81
2022/08/05 10:33:16;;;;;;;1.95;1.30;;;35.70;32.40;;;;;;4857433;29;20509;-81
2022/08/05 10:35:44;;;;;;;1.83;1.00;;;35.70;33.50;;;;;;4871861;29;20627;-81
2022/08/05 10:38:27;;;;;;;0.97;0.83;;;35.70;32.20;;;;;;4856844;29;20433;-81
2022/08/05 10:41:03;;;;;;;1.90;1.02;;;35.70;33.10;;;;;;4856460;29;20427;-84
2022/08/05 10:43:41;;;;;;;4.87;1.20;;;35.80;32.80;;;;;;4850874;29;20773;-82
2022/08/05 10:46:12;;;;;;;0.95;0.80;;;35.80;32.20;;;;;;4842577;29;20438;-83
2022/08/05 10:48:47;;;;;;;0.90;0.80;;;35.90;32.60;;;;;;4846352;29;20415;-81
2022/08/05 10:51:25;;;;;;;2.40;0.90;;;36.00;32.20;;;;;;4863422;29;21058;-82
2022/08/05 10:53:55;;;;;;;2.25;0.90;;;36.00;31.50;;;;;;4864046;29;20417;-82
2022/08/05 10:56:35;;;;;;;1.93;1.00;;;36.10;31.00;;;;;;4855332;29;20961;-82
2022/08/05 10:59:05;;;;;;;1.20;0.90;;;36.00;31.40;;;;;;4860774;29;20433;-82
2022/08/05 11:02:25;;;;;;;1.70;0.70;;;36.10;31.60;;;;;;4856014;29;20994;-81
2022/08/05 11:05:09;;;;;;;1.95;1.00;;;36.30;31.30;;;;;;4842445;29;20531;-82
2022/08/05 11:07:56;;;;;;;2.35;1.10;;;36.30;30.20;;;;;;4867690;29;20425;-82
2022/08/05 11:10:37;;;;;;;2.00;1.10;;;36.20;30.80;;;;;;4856677;29;20413;-82
2022/08/05 11:13:39;;;;;;;1.50;0.93;;;36.20;32.00;;;;;;4860991;29;20448;-82
2022/08/05 11:16:23;;;;;;;2.90;0.80;;;36.40;32.30;;;;;;4849915;29;20433;-82
2022/08/05 11:19:30;;;;;;;1.42;0.93;;;36.70;32.10;;;;;;4856090;29;20441;-82
2022/08/05 11:22:43;;;;;;;1.90;1.00;;;36.70;30.80;;;;;;4856434;29;20451;-82
2022/08/05 11:25:36;;;;;;;2.00;1.00;;;36.90;31.80;;;;;;4850244;29;20440;-81
2022/08/05 11:28:23;;;;;;;2.22;0.80;;;37.10;31.90;;;;;;4854313;29;20524;-84
2022/08/05 11:31:04;;;;;;;1.38;0.80;;;37.40;31.90;;;;;;4856453;29;20431;-81
2022/08/05 11:33:36;;;;;;;2.92;1.23;;;37.70;30.60;;;;;;4855559;29;20816;-84
2022/08/05 11:36:15;;;;;;;1.48;0.93;;;38.00;29.90;;;;;;4855835;29;20508;-81
2022/08/05 11:39:00;;;;;;;3.17;1.03;;;38.00;29.70;;;;;;4848190;29;20433;-82
2022/08/05 11:41:30;;;;;;;1.50;1.23;;;37.80;30.90;;;;;;4864896;29;20433;-82
2022/08/05 11:44:19;;;;;;;2.00;1.00;;;37.80;30.60;;;;;;4848565;29;20518;-82
2022/08/05 11:47:06;;;;;;;2.08;1.00;;;37.90;30.80;;;;;;4851842;29;20508;-82
2022/08/05 11:49:42;;;;;;;4.27;1.10;;;37.90;30.80;;;;;;4851529;29;20423;-83
2022/08/05 11:52:27;;;;;;;2.67;1.20;;;37.70;30.70;;;;;;4849523;29;20482;-82
2022/08/05 11:54:58;;;;;;;1.77;1.10;;;37.50;30.80;;;;;;4864607;29;20547;-82
2022/08/05 11:57:33;;;;;;;2.22;1.10;;;37.50;30.60;;;;;;4849929;29;20557;-81
2022/08/05 12:00:30;;;;;;;2.70;1.10;;;37.50;31.20;;;;;;4844645;29;20507;-83
2022/08/05 12:03:13;;;;;;;1.33;0.90;;;37.50;30.30;;;;;;4878039;29;20410;-82
2022/08/05 12:05:40;;;;;;;1.60;1.00;;;37.60;31.60;;;;;;4867333;29;20425;-82
2022/08/05 12:08:09;;;;;;;2.92;0.95;;;37.90;31.10;;;;;;4861396;29;20429;-84
2022/08/05 12:10:43;;;;;;;1.80;0.70;;;38.10;30.60;;;;;;4854750;29;20435;-82
2022/08/05 12:13:16;;;;;;;1.65;0.90;;;38.10;30.30;;;;;;4866894;29;20832;-82
2022/08/05 12:16:07;;;;;;;1.95;0.93;;;38.00;30.20;;;;;;4854933;29;20533;-82
2022/08/05 12:18:41;;;;;;;1.50;0.88;;;38.00;30.70;;;;;;4853692;29;20463;-84
2022/08/05 12:21:22;;;;;;;6.35;1.20;;;37.90;30.20;;;;;;4861953;29;20430;-82
2022/08/05 12:23:56;;;;;;;2.10;0.95;;;37.90;29.90;;;;;;4858945;29;20474;-82
2022/08/05 12:26:34;;;;;;;1.88;0.85;;;37.60;30.40;;;;;;4864149;29;20866;-82
2022/08/05 12:29:13;;;;;;;3.75;1.00;;;37.60;30.60;;;;;;4872862;29;20512;-82
2022/08/05 12:31:52;;;;;;;1.90;0.73;;;37.80;31.20;;;;;;4853505;29;20429;-83
2022/08/05 12:34:29;;;;;;;3.50;0.98;;;38.10;29.90;;;;;;4858784;29;20900;-82
2022/08/05 12:37:09;;;;;;;2.40;1.00;;;38.60;29.10;;;;;;4860835;29;20427;-83
2022/08/05 12:39:38;;;;;;;3.90;1.10;;;38.70;28.30;;;;;;4868310;29;20434;-84
2022/08/05 12:42:15;;;;;;;4.50;1.13;;;38.60;28.50;;;;;;4863613;29;21001;-84
2022/08/05 12:44:44;;;;;;;2.10;1.00;;;38.50;29.30;;;;;;4860038;29;20442;-84
2022/08/05 12:47:24;;;;;;;2.90;1.00;;;38.40;29.20;;;;;;4849173;29;20497;-84
2022/08/05 12:49:52;;;;;;;1.13;0.90;;;38.30;28.70;;;;;;4865608;29;20496;-83
2022/08/05 12:52:35;;;;;;;1.40;0.80;;;38.20;29.20;;;;;;4875611;29;20526;-82
2022/08/05 12:55:22;;;;;;;3.15;1.00;;;38.00;29.40;;;;;;4867440;29;20441;-82
2022/08/05 12:57:53;;;;;;;2.10;0.80;;;38.00;29.60;;;;;;4871460;29;20428;-84
2022/08/05 13:00:43;;;;;;;1.70;0.80;;;37.80;30.50;;;;;;4855019;29;20988;-82
2022/08/05 13:03:30;;;;;;;2.65;1.00;;;37.60;30.00;;;;;;4863385;29;21021;-82
2022/08/05 13:06:05;;;;;;;1.50;0.98;;;37.40;30.30;;;;;;4870816;29;20503;-82
2022/08/05 13:08:37;;;;;;;1.45;0.80;;;37.30;30.20;;;;;;4859154;29;20468;-82
2022/08/05 13:11:06;;;;;;;3.70;1.00;;;37.20;30.50;;;;;;4856295;29;20444;-84
2022/08/05 13:13:37;;;;;;;1.17;0.80;;;37.10;30.10;;;;;;4855415;29;20432;-83
2022/08/05 13:16:24;;;;;;;1.90;0.80;;;37.10;30.30;;;;;;4867931;29;20462;-82
2022/08/05 13:18:55;;;;;;;1.83;0.90;;;37.30;30.50;;;;;;4856606;29;20473;-82
2022/08/05 13:21:25;;;;;;;1.60;0.70;;;37.70;30.10;;;;;;4856324;29;20493;-83
2022/08/05 13:24:04;;;;;;;0.95;0.85;;;38.00;29.40;;;;;;4856863;29;20444;-82
2022/08/05 13:26:34;;;;;;;1.40;1.00;;;38.30;29.10;;;;;;4860954;29;20432;-84
2022/08/05 13:29:01;;;;;;;1.90;0.80;;;38.40;28.90;;;;;;4853703;29;20479;-82
2022/08/05 13:31:31;;;;;;;2.45;0.77;;;38.40;28.70;;;;;;4862669;29;20928;-81
2022/08/05 13:34:18;;;;;;;2.00;0.77;;;38.30;28.80;;;;;;4879792;29;20473;-81
2022/08/05 13:36:54;;;;;;;1.55;0.85;;;38.30;29.70;;;;;;4866705;29;20423;-82
2022/08/05 13:39:21;;;;;;;0.70;0.70;;;38.20;29.60;;;;;;4860693;29;20810;-82
2022/08/05 13:42:09;;;;;;;2.40;0.80;;;38.10;29.80;;;;;;4856050;29;20501;-81
2022/08/05 13:44:41;;;;;;;2.17;0.90;;;38.00;29.80;;;;;;4864887;29;20432;-82